Time;durP1;ratioP1;P1;durP2;ratioP2;P2;SDS_P1;SDS_P2;PMS_P1;PMS_P2;Temp;Humidity;BMP_temperature;BMP_pressure;BME280_temperature;BME280_humidity;BME280_pressure;Samples;Min_cycle;Max_cycle;Signal;HPM_P1;HPM_P2
2021/05/15 05:26:05;;;;;;;12.38;4.60;;;;;;;;;;5266520;23;20565;-68
2021/05/15 05:28:35;;;;;;;9.63;4.90;;;;;;;;;;4897559;29;20033;-60
2021/05/15 05:31:04;;;;;;;8.50;5.45;;;;;;;;;;4897951;29;20469;-63
2021/05/15 05:33:30;;;;;;;14.23;5.20;;;;;;;;;;4897351;29;20039;-75
2021/05/15 05:38:22;;;;;;;11.07;5.00;;;;;;;;;;5227369;23;20151;-66
2021/05/15 05:40:48;;;;;;;10.32;5.15;;;;;;;;;;4926637;29;20050;-63
2021/05/15 05:43:14;;;;;;;9.85;5.28;;;;;;;;;;4934858;29;20063;-65
2021/05/15 05:45:40;;;;;;;9.85;5.43;;;;;;;;;;4934416;29;20099;-64
2021/05/15 05:48:06;;;;;;;11.23;5.28;;;;;;;;;;4935150;29;20059;-83
2021/05/15 05:50:32;;;;;;;10.05;5.85;;;;;;;;;;4935086;29;20049;-81
2021/05/15 05:52:58;;;;;;;8.43;4.90;;;;;;;;;;4934524;29;20032;-71
2021/05/15 05:55:25;;;;;;;10.20;4.72;;;;;;;;;;4934869;29;20027;-73
2021/05/15 05:57:51;;;;;;;8.73;3.88;;;;;;;;;;4912614;29;20039;-62
2021/05/15 06:00:17;;;;;;;9.30;3.83;;;;;;;;;;4905708;29;20048;-70
2021/05/15 06:02:43;;;;;;;7.68;4.18;;;;;;;;;;4904637;29;20021;-63
2021/05/15 06:05:10;;;;;;;8.65;3.78;;;;;;;;;;4904298;29;20039;-69
2021/05/15 06:10:38;;;;;;;6.15;3.28;;;;;;;;;;4754991;27;20053;-75
2021/05/15 06:13:06;;;;;;;5.63;2.85;;;;;;;;;;4846804;29;20121;-62
2021/05/15 06:15:32;;;;;;;5.53;2.60;;;;;;;;;;4849658;29;20054;-65
2021/05/15 06:17:58;;;;;;;3.63;2.28;;;;;;;;;;4849186;29;20061;-61
2021/05/15 06:20:24;;;;;;;4.78;2.15;;;;;;;;;;4847772;29;20037;-59
2021/05/15 06:22:50;;;;;;;5.50;2.00;;;;;;;;;;4844550;29;20034;-62
2021/05/15 06:25:16;;;;;;;6.97;2.05;;;;;;;;;;4850581;29;20033;-69
2021/05/15 06:27:43;;;;;;;5.07;2.17;;;;;;;;;;4858654;29;20034;-68
2021/05/15 06:30:09;;;;;;;9.23;2.15;;;;;;;;;;4856709;29;20162;-71
2021/05/15 06:32:35;;;;;;;6.07;2.10;;;;;;;;;;4856950;29;20482;-60
2021/05/15 06:35:01;;;;;;;5.70;2.05;;;;;;;;;;4857636;29;20030;-64
2021/05/15 06:37:27;;;;;;;6.68;2.05;;;;;;;;;;4857564;29;20040;-61
2021/05/15 06:39:53;;;;;;;11.48;5.53;;;;;;;;;;4857803;29;20045;-75
2021/05/15 06:42:19;;;;;;;5.97;3.13;;;;;;;;;;4857286;29;20045;-68
2021/05/15 06:44:47;;;;;;;5.53;2.53;;;;;;;;;;4857803;29;20503;-74
2021/05/15 06:47:14;;;;;;;8.50;3.58;;;;;;;;;;4856640;29;20041;-73
2021/05/15 06:49:40;;;;;;;4.40;2.72;;;;;;;;;;4859040;29;20486;-62
2021/05/15 06:52:06;;;;;;;3.47;1.85;;;;;;;;;;4857722;29;20025;-69
2021/05/15 06:54:32;;;;;;;7.90;3.17;;;;;;;;;;4858350;29;20040;-76
2021/05/15 06:56:58;;;;;;;11.13;5.50;;;;;;;;;;4858982;29;20132;-62
2021/05/15 06:59:25;;;;;;;10.32;4.55;;;;;;;;;;4858108;29;20065;-61
2021/05/15 07:01:51;;;;;;;4.80;2.63;;;;;;;;;;4858748;29;20058;-63
2021/05/15 07:04:17;;;;;;;7.30;2.75;;;;;;;;;;4857624;29;20401;-68
2021/05/15 07:06:44;;;;;;;8.52;3.15;;;;;;;;;;4852353;29;20304;-60
2021/05/15 07:09:10;;;;;;;8.07;4.38;;;;;;;;;;4849825;29;20494;-61
2021/05/15 07:11:36;;;;;;;7.43;3.55;;;;;;;;;;4841122;29;20053;-61
2021/05/15 07:14:03;;;;;;;9.90;3.67;;;;;;;;;;4839854;29;20030;-65
2021/05/15 07:16:29;;;;;;;8.35;3.70;;;;;;;;;;4841332;29;20040;-70
2021/05/15 07:18:55;;;;;;;14.02;5.80;;;;;;;;;;4849667;29;20081;-77
2021/05/15 07:21:21;;;;;;;6.15;3.25;;;;;;;;;;4839489;29;20045;-64
2021/05/15 07:23:47;;;;;;;9.15;3.83;;;;;;;;;;4839779;29;20044;-68
2021/05/15 07:26:13;;;;;;;7.90;3.50;;;;;;;;;;4839536;29;20073;-61
2021/05/15 07:28:39;;;;;;;7.75;4.00;;;;;;;;;;4837995;29;20041;-70
2021/05/15 07:31:05;;;;;;;6.75;3.67;;;;;;;;;;4839755;29;20041;-63
2021/05/15 07:33:32;;;;;;;7.95;3.40;;;;;;;;;;4839720;29;20037;-72
2021/05/15 07:35:58;;;;;;;9.05;3.40;;;;;;;;;;4839728;29;20026;-62
2021/05/15 07:38:26;;;;;;;11.02;4.47;;;;;;;;;;4839425;29;20073;-68
2021/05/15 07:40:52;;;;;;;10.98;5.63;;;;;;;;;;4839378;29;20067;-75
2021/05/15 07:43:26;;;;;;;10.98;6.38;;;;;;;;;;4839413;29;20022;-78
2021/05/15 07:45:55;;;;;;;15.02;8.82;;;;;;;;;;4839548;29;20040;-70
2021/05/15 07:48:43;;;;;;;14.25;6.72;;;;;;;;;;4839221;29;20471;-76
2021/05/15 07:51:13;;;;;;;15.15;8.32;;;;;;;;;;4838957;29;20481;-71
2021/05/15 07:53:40;;;;;;;14.27;7.18;;;;;;;;;;4839080;29;20034;-73
2021/05/15 07:56:06;;;;;;;11.48;7.28;;;;;;;;;;4839152;29;20112;-75
2021/05/15 07:58:32;;;;;;;14.52;7.80;;;;;;;;;;4838100;29;20409;-74
2021/05/15 08:01:00;;;;;;;17.25;9.13;;;;;;;;;;4839102;29;20041;-71
2021/05/15 08:03:26;;;;;;;13.55;8.05;;;;;;;;;;4839206;29;20036;-73
2021/05/15 08:05:52;;;;;;;12.35;7.22;;;;;;;;;;4839502;29;20026;-66
2021/05/15 08:08:18;;;;;;;12.82;8.10;;;;;;;;;;4839045;29;20792;-69
2021/05/15 08:10:44;;;;;;;13.23;7.28;;;;;;;;;;4842028;29;20038;-78
2021/05/15 08:13:10;;;;;;;10.63;5.85;;;;;;;;;;4842341;29;20060;-77
2021/05/15 08:15:36;;;;;;;14.52;7.00;;;;;;;;;;4849082;29;20067;-76
2021/05/15 08:18:02;;;;;;;11.15;7.30;;;;;;;;;;4851268;29;20035;-73
2021/05/15 08:20:29;;;;;;;14.27;7.47;;;;;;;;;;4851400;29;20034;-75
2021/05/15 08:22:55;;;;;;;12.82;6.93;;;;;;;;;;4849891;29;20026;-73
2021/05/15 08:25:21;;;;;;;15.73;8.70;;;;;;;;;;4851107;29;20066;-68
2021/05/15 08:27:53;;;;;;;12.10;7.30;;;;;;;;;;4852014;29;20524;-62
2021/05/15 08:30:20;;;;;;;19.53;8.03;;;;;;;;;;4851847;29;20026;-67
2021/05/15 08:32:49;;;;;;;13.07;7.55;;;;;;;;;;4850565;29;20086;-68
2021/05/15 08:35:15;;;;;;;14.68;6.60;;;;;;;;;;4856055;29;20037;-69
2021/05/15 08:37:42;;;;;;;12.18;6.68;;;;;;;;;;4859286;29;20021;-63
2021/05/15 08:40:09;;;;;;;15.93;7.60;;;;;;;;;;4858698;29;20033;-69
2021/05/15 08:42:40;;;;;;;11.90;6.95;;;;;;;;;;4859093;29;20030;-68
2021/05/15 08:45:07;;;;;;;14.43;7.38;;;;;;;;;;4858033;29;20116;-72
2021/05/15 08:47:34;;;;;;;14.23;6.15;;;;;;;;;;4858062;29;20062;-69
2021/05/15 08:50:01;;;;;;;17.15;6.18;;;;;;;;;;4859297;29;20030;-73
2021/05/15 08:52:28;;;;;;;9.23;4.97;;;;;;;;;;4859614;29;20030;-70
2021/05/15 08:54:54;;;;;;;13.32;5.88;;;;;;;;;;4858977;29;20398;-76
2021/05/15 08:57:20;;;;;;;11.05;7.00;;;;;;;;;;4860509;29;20037;-72
2021/05/15 08:59:50;;;;;;;14.13;7.80;;;;;;;;;;4860700;29;20064;-74
2021/05/15 09:02:18;;;;;;;12.80;8.10;;;;;;;;;;4860807;29;20041;-74
2021/05/15 09:04:44;;;;;;;12.55;7.60;;;;;;;;;;4860028;29;20116;-60
2021/05/15 09:07:10;;;;;;;18.73;7.70;;;;;;;;;;4860678;29;20025;-66
2021/05/15 09:09:36;;;;;;;14.07;7.20;;;;;;;;;;4857515;29;20049;-71
2021/05/15 09:12:03;;;;;;;14.23;6.55;;;;;;;;;;4854541;29;20367;-62
2021/05/15 09:14:29;;;;;;;11.10;5.82;;;;;;;;;;4855705;29;20040;-70
2021/05/15 09:16:56;;;;;;;14.52;6.18;;;;;;;;;;4860148;29;20381;-62
2021/05/15 09:19:24;;;;;;;12.70;5.15;;;;;;;;;;4859917;29;20502;-62
2021/05/15 09:22:05;;;;;;;11.23;5.03;;;;;;;;;;4858771;29;20090;-70
2021/05/15 09:24:33;;;;;;;12.15;5.18;;;;;;;;;;4860441;29;20029;-70
2021/05/15 09:27:01;;;;;;;8.32;4.75;;;;;;;;;;4860041;29;20040;-70
2021/05/15 09:29:28;;;;;;;8.43;3.92;;;;;;;;;;4860182;29;20030;-72
2021/05/15 09:31:54;;;;;;;9.82;3.75;;;;;;;;;;4860457;29;20522;-65
2021/05/15 09:34:21;;;;;;;6.50;3.20;;;;;;;;;;4859650;29;20040;-69
2021/05/15 09:36:48;;;;;;;7.05;2.55;;;;;;;;;;4860028;29;20025;-76
2021/05/15 09:39:15;;;;;;;7.88;2.92;;;;;;;;;;4858334;29;20052;-76
2021/05/15 09:41:51;;;;;;;5.28;2.50;;;;;;;;;;4859929;29;20453;-72
2021/05/15 09:44:19;;;;;;;6.15;2.20;;;;;;;;;;4859729;29;20101;-68
2021/05/15 09:46:46;;;;;;;7.53;2.75;;;;;;;;;;4859310;29;20517;-76
2021/05/15 09:49:12;;;;;;;6.43;2.70;;;;;;;;;;4859500;29;20033;-67
2021/05/15 09:51:40;;;;;;;11.50;2.63;;;;;;;;;;4859224;29;20033;-67
2021/05/15 09:54:12;;;;;;;9.02;3.13;;;;;;;;;;4859495;29;20060;-73
2021/05/15 09:56:38;;;;;;;7.18;3.83;;;;;;;;;;4859867;29;20449;-70
2021/05/15 09:59:04;;;;;;;7.75;3.10;;;;;;;;;;4859311;29;20060;-74
2021/05/15 10:01:44;;;;;;;8.15;3.15;;;;;;;;;;4859877;29;20497;-69
2021/05/15 10:04:11;;;;;;;4.47;2.80;;;;;;;;;;4858964;29;20034;-73
2021/05/15 10:06:37;;;;;;;11.90;3.30;;;;;;;;;;4859616;29;20113;-71
2021/05/15 10:09:04;;;;;;;12.18;6.35;;;;;;;;;;4859089;29;20530;-62
2021/05/15 10:11:30;;;;;;;7.53;4.38;;;;;;;;;;4859376;29;20038;-75
2021/05/15 10:13:56;;;;;;;7.70;3.38;;;;;;;;;;4859414;29;20109;-71
2021/05/15 10:16:22;;;;;;;7.03;3.20;;;;;;;;;;4859303;29;20051;-63
2021/05/15 10:18:49;;;;;;;7.55;3.00;;;;;;;;;;4858893;29;20100;-72
2021/05/15 10:21:15;;;;;;;7.55;3.08;;;;;;;;;;4859108;29;20033;-75
2021/05/15 10:23:45;;;;;;;7.97;2.90;;;;;;;;;;4858962;29;20034;-76
2021/05/15 10:26:21;;;;;;;6.60;3.15;;;;;;;;;;4858397;29;20093;-66
2021/05/15 10:29:04;;;;;;;11.10;3.63;;;;;;;;;;4859233;29;20029;-74
2021/05/15 10:31:37;;;;;;;10.30;3.28;;;;;;;;;;4858913;29;20041;-73
2021/05/15 10:34:03;;;;;;;8.45;3.42;;;;;;;;;;4858266;29;20026;-76
2021/05/15 10:36:29;;;;;;;8.88;3.35;;;;;;;;;;4858885;29;20030;-76
2021/05/15 10:38:55;;;;;;;6.50;3.27;;;;;;;;;;4858393;29;20065;-74
2021/05/15 10:41:25;;;;;;;7.55;3.08;;;;;;;;;;4858763;29;20226;-70
2021/05/15 10:43:52;;;;;;;7.90;3.15;;;;;;;;;;4858798;29;20030;-73
2021/05/15 10:46:29;;;;;;;6.97;2.63;;;;;;;;;;4858305;29;20057;-75
2021/05/15 10:48:55;;;;;;;4.97;2.90;;;;;;;;;;4858640;29;20112;-73
2021/05/15 10:51:33;;;;;;;7.53;3.05;;;;;;;;;;4858748;29;20021;-70
2021/05/15 10:53:59;;;;;;;5.18;2.40;;;;;;;;;;4859252;29;20052;-63
2021/05/15 10:56:29;;;;;;;7.53;2.88;;;;;;;;;;4859009;29;20030;-69
2021/05/15 10:59:00;;;;;;;7.38;2.72;;;;;;;;;;4858638;29;20471;-63
2021/05/15 11:01:26;;;;;;;8.57;2.97;;;;;;;;;;4858404;29;20046;-62
2021/05/15 11:03:52;;;;;;;9.73;2.75;;;;;;;;;;4858363;29;20390;-65
2021/05/15 11:06:23;;;;;;;6.95;2.50;;;;;;;;;;4858625;29;20034;-68
2021/05/15 11:09:01;;;;;;;5.82;2.58;;;;;;;;;;4857547;29;20055;-68
2021/05/15 11:11:47;;;;;;;5.57;1.92;;;;;;;;;;4858091;29;20140;-76
2021/05/15 11:14:25;;;;;;;3.33;1.38;;;;;;;;;;4858605;29;20033;-76
2021/05/15 11:17:05;;;;;;;7.57;1.92;;;;;;;;;;4858374;29;20133;-73
2021/05/15 11:19:31;;;;;;;5.20;1.63;;;;;;;;;;4858481;29;20037;-63
2021/05/15 11:21:57;;;;;;;3.67;1.75;;;;;;;;;;4858220;29;20521;-76
2021/05/15 11:24:30;;;;;;;10.40;1.92;;;;;;;;;;4858270;29;20029;-73
2021/05/15 11:26:58;;;;;;;5.53;1.75;;;;;;;;;;4858529;29;20044;-66
2021/05/15 11:29:34;;;;;;;4.07;1.95;;;;;;;;;;4858103;29;20036;-68
2021/05/15 11:32:14;;;;;;;3.95;1.40;;;;;;;;;;4858408;29;20123;-69
2021/05/15 11:34:41;;;;;;;4.65;1.40;;;;;;;;;;4858103;29;20025;-65
2021/05/15 11:37:11;;;;;;;6.40;1.70;;;;;;;;;;4857900;29;20040;-63
2021/05/15 11:39:37;;;;;;;3.90;1.40;;;;;;;;;;4858178;29;20056;-74
2021/05/15 11:42:07;;;;;;;4.80;1.50;;;;;;;;;;4857807;29;20025;-64
2021/05/15 11:44:33;;;;;;;5.78;1.88;;;;;;;;;;4857088;29;20062;-66
2021/05/15 11:47:01;;;;;;;8.60;1.70;;;;;;;;;;4858152;29;20745;-69
2021/05/15 11:49:28;;;;;;;8.55;2.30;;;;;;;;;;4858002;29;20029;-65
2021/05/15 11:52:01;;;;;;;3.63;1.30;;;;;;;;;;4858417;29;20189;-66
2021/05/15 11:54:27;;;;;;;3.88;1.30;;;;;;;;;;4857912;29;20030;-63
2021/05/15 11:56:56;;;;;;;4.18;1.55;;;;;;;;;;4858350;29;20569;-62
2021/05/15 11:59:22;;;;;;;5.93;1.35;;;;;;;;;;4857420;29;20044;-66
2021/05/15 12:01:48;;;;;;;4.35;1.20;;;;;;;;;;4857780;29;20113;-65
2021/05/15 12:04:22;;;;;;;4.47;1.50;;;;;;;;;;4857981;29;20033;-67
2021/05/15 12:06:51;;;;;;;3.97;1.50;;;;;;;;;;4857743;29;20049;-68
2021/05/15 12:09:17;;;;;;;4.30;1.63;;;;;;;;;;4857594;29;20079;-63
2021/05/15 12:11:44;;;;;;;6.00;1.60;;;;;;;;;;4857767;29;20038;-66
2021/05/15 12:14:11;;;;;;;3.30;1.33;;;;;;;;;;4857711;29;20035;-75
2021/05/15 12:16:38;;;;;;;5.10;1.50;;;;;;;;;;4857207;29;20035;-62
2021/05/15 12:19:05;;;;;;;5.25;1.98;;;;;;;;;;4857333;29;20517;-64
2021/05/15 12:21:31;;;;;;;7.50;1.85;;;;;;;;;;4857503;29;20046;-63
2021/05/15 12:24:05;;;;;;;6.75;2.17;;;;;;;;;;4857057;29;20029;-62
2021/05/15 12:26:31;;;;;;;6.20;1.98;;;;;;;;;;4857682;29;20057;-62
2021/05/15 12:29:00;;;;;;;5.22;1.88;;;;;;;;;;4857565;29;20033;-68
2021/05/15 12:31:33;;;;;;;6.32;1.60;;;;;;;;;;4857966;29;20034;-63
2021/05/15 12:34:00;;;;;;;4.43;1.40;;;;;;;;;;4857425;29;20030;-76
2021/05/15 12:36:30;;;;;;;5.50;1.67;;;;;;;;;;4857565;29;20030;-64
2021/05/15 12:38:57;;;;;;;4.97;1.63;;;;;;;;;;4857468;29;20076;-68
2021/05/15 12:41:24;;;;;;;10.10;2.10;;;;;;;;;;4857208;29;20045;-63
2021/05/15 12:44:10;;;;;;;6.63;1.75;;;;;;;;;;4857577;29;20021;-64
2021/05/15 12:46:37;;;;;;;6.35;1.73;;;;;;;;;;4857503;29;20037;-63
2021/05/15 12:49:07;;;;;;;8.70;3.22;;;;;;;;;;4857674;29;20030;-65
2021/05/15 12:51:37;;;;;;;4.60;1.30;;;;;;;;;;4857703;29;20401;-67
2021/05/15 12:54:13;;;;;;;9.40;1.60;;;;;;;;;;4857569;29;20026;-66
2021/05/15 12:56:39;;;;;;;5.38;1.30;;;;;;;;;;4860050;29;20116;-75
2021/05/15 12:59:07;;;;;;;4.70;1.40;;;;;;;;;;4860729;29;20053;-72
2021/05/15 13:01:33;;;;;;;4.18;1.20;;;;;;;;;;4860406;29;20044;-64
2021/05/15 13:03:59;;;;;;;3.08;1.35;;;;;;;;;;4860951;29;20025;-64
2021/05/15 13:06:25;;;;;;;4.65;1.30;;;;;;;;;;4860876;29;20053;-61
2021/05/15 13:09:00;;;;;;;4.07;1.30;;;;;;;;;;4860458;29;20052;-62
2021/05/15 13:11:27;;;;;;;4.30;1.60;;;;;;;;;;4860088;29;20029;-65
2021/05/15 13:13:55;;;;;;;3.88;1.30;;;;;;;;;;4860621;29;20034;-65
2021/05/15 13:16:21;;;;;;;6.10;1.33;;;;;;;;;;4860558;29;20030;-66
2021/05/15 13:18:58;;;;;;;6.15;1.33;;;;;;;;;;4860639;29;20037;-64
2021/05/15 13:21:24;;;;;;;5.28;1.52;;;;;;;;;;4860697;29;20390;-63
2021/05/15 13:23:50;;;;;;;3.72;1.38;;;;;;;;;;4860370;29;20036;-64
2021/05/15 13:26:16;;;;;;;7.53;1.52;;;;;;;;;;4860543;29;20129;-64
2021/05/15 13:28:42;;;;;;;4.20;1.20;;;;;;;;;;4860500;29;20032;-66
2021/05/15 13:31:08;;;;;;;4.07;1.20;;;;;;;;;;4860182;29;20415;-67
2021/05/15 13:33:34;;;;;;;4.28;1.50;;;;;;;;;;4860374;29;20037;-63
2021/05/15 13:36:01;;;;;;;5.00;2.22;;;;;;;;;;4859856;29;20036;-70
2021/05/15 13:38:27;;;;;;;6.20;1.80;;;;;;;;;;4859995;29;20117;-75
2021/05/15 13:40:53;;;;;;;4.10;1.30;;;;;;;;;;4859869;29;20037;-73
2021/05/15 13:43:19;;;;;;;3.63;1.20;;;;;;;;;;4859982;29;20030;-73
2021/05/15 13:45:46;;;;;;;3.10;1.10;;;;;;;;;;4859696;29;20065;-70
2021/05/15 13:48:12;;;;;;;5.65;1.30;;;;;;;;;;4858777;29;20049;-74
2021/05/15 13:50:38;;;;;;;6.65;1.35;;;;;;;;;;4859820;29;20032;-69
2021/05/15 13:53:04;;;;;;;3.97;1.27;;;;;;;;;;4859810;29;20490;-70
2021/05/15 13:55:31;;;;;;;6.13;1.50;;;;;;;;;;4859329;29;20075;-68
2021/05/15 13:57:57;;;;;;;5.07;1.75;;;;;;;;;;4859436;29;20053;-70
2021/05/15 14:00:23;;;;;;;3.97;1.20;;;;;;;;;;4859496;29;20045;-65
2021/05/15 14:02:49;;;;;;;4.25;1.48;;;;;;;;;;4860138;29;20398;-65
2021/05/15 14:05:16;;;;;;;4.80;1.50;;;;;;;;;;4858977;29;20478;-64
2021/05/15 14:07:42;;;;;;;6.25;1.40;;;;;;;;;;4859126;29;20038;-63
2021/05/15 14:10:09;;;;;;;3.45;0.90;;;;;;;;;;4859293;29;20112;-72
2021/05/15 14:12:35;;;;;;;4.82;1.40;;;;;;;;;;4859431;29;20029;-62
2021/05/15 14:15:02;;;;;;;4.70;1.10;;;;;;;;;;4859309;29;20035;-64
2021/05/15 14:17:28;;;;;;;3.55;0.93;;;;;;;;;;4859414;29;20025;-73
2021/05/15 14:19:54;;;;;;;4.22;1.00;;;;;;;;;;4859538;29;20045;-70
2021/05/15 14:22:20;;;;;;;3.15;0.80;;;;;;;;;;4859654;29;20112;-67
2021/05/15 14:24:47;;;;;;;3.72;1.20;;;;;;;;;;4859630;29;20030;-67
2021/05/15 14:27:13;;;;;;;4.82;0.90;;;;;;;;;;4859359;29;20141;-69
2021/05/15 14:29:39;;;;;;;4.18;1.00;;;;;;;;;;4859641;29;20044;-70
2021/05/15 14:32:05;;;;;;;1.95;0.80;;;;;;;;;;4859140;29;20045;-67
2021/05/15 14:34:31;;;;;;;4.80;1.00;;;;;;;;;;4859148;29;20073;-68
2021/05/15 14:36:57;;;;;;;4.88;1.10;;;;;;;;;;4859216;29;20085;-75
2021/05/15 14:39:23;;;;;;;6.07;0.95;;;;;;;;;;4858859;29;20113;-75
2021/05/15 14:41:49;;;;;;;3.25;0.93;;;;;;;;;;4858972;29;20531;-75
2021/05/15 14:44:15;;;;;;;5.07;1.20;;;;;;;;;;4858840;29;20515;-75
2021/05/15 14:46:42;;;;;;;3.60;0.95;;;;;;;;;;4858849;29;20025;-71
2021/05/15 14:49:09;;;;;;;3.58;0.98;;;;;;;;;;4858750;29;20030;-71
2021/05/15 14:51:35;;;;;;;3.30;1.10;;;;;;;;;;4858891;29;20549;-71
2021/05/15 14:54:01;;;;;;;4.35;1.00;;;;;;;;;;4858836;29;20033;-73
2021/05/15 14:56:27;;;;;;;4.82;0.98;;;;;;;;;;4858890;29;20486;-64
2021/05/15 14:58:53;;;;;;;3.72;1.50;;;;;;;;;;4858829;29;20086;-64
2021/05/15 15:01:19;;;;;;;3.17;1.17;;;;;;;;;;4858667;29;20038;-63
2021/05/15 15:03:47;;;;;;;4.65;1.10;;;;;;;;;;4858868;29;20182;-62
2021/05/15 15:06:13;;;;;;;3.53;1.20;;;;;;;;;;4858678;29;20032;-62
2021/05/15 15:08:40;;;;;;;5.95;1.60;;;;;;;;;;4858370;29;20048;-68
2021/05/15 15:11:08;;;;;;;5.18;1.00;;;;;;;;;;4858307;29;20029;-71
2021/05/15 15:13:34;;;;;;;6.13;1.25;;;;;;;;;;4858347;29;20058;-66
2021/05/15 15:16:01;;;;;;;5.05;1.10;;;;;;;;;;4858270;29;20386;-74
2021/05/15 15:18:27;;;;;;;3.90;1.90;;;;;;;;;;4858510;29;20032;-64
2021/05/15 15:20:54;;;;;;;4.18;1.52;;;;;;;;;;4858311;29;20033;-71
2021/05/15 15:23:21;;;;;;;3.63;1.40;;;;;;;;;;4858151;29;20478;-65
2021/05/15 15:25:48;;;;;;;5.65;1.60;;;;;;;;;;4858301;29;20029;-68
2021/05/15 15:28:14;;;;;;;4.07;1.58;;;;;;;;;;4858120;29;20402;-75
2021/05/15 15:30:41;;;;;;;6.07;1.73;;;;;;;;;;4858275;29;20478;-76
2021/05/15 15:33:07;;;;;;;6.55;1.80;;;;;;;;;;4858154;29;20026;-65
2021/05/15 15:35:33;;;;;;;9.02;2.03;;;;;;;;;;4858202;29;20078;-62
2021/05/15 15:37:59;;;;;;;6.07;2.35;;;;;;;;;;4857592;29;20022;-75
2021/05/15 15:40:26;;;;;;;6.38;2.08;;;;;;;;;;4857845;29;20084;-68
2021/05/15 15:42:53;;;;;;;6.80;2.50;;;;;;;;;;4857836;29;20026;-67
2021/05/15 15:45:19;;;;;;;6.53;2.83;;;;;;;;;;4857773;29;20034;-66
2021/05/15 15:47:45;;;;;;;7.18;2.80;;;;;;;;;;4856858;29;20042;-72
2021/05/15 15:50:12;;;;;;;3.97;1.83;;;;;;;;;;4856262;29;20071;-69
2021/05/15 15:52:38;;;;;;;4.40;1.77;;;;;;;;;;4857892;29;20036;-65
2021/05/15 15:55:05;;;;;;;4.53;2.05;;;;;;;;;;4858027;29;20089;-67
2021/05/15 15:57:31;;;;;;;5.68;2.42;;;;;;;;;;4858065;29;20030;-66
2021/05/15 15:59:57;;;;;;;4.68;1.88;;;;;;;;;;4857159;29;20044;-66
2021/05/15 16:02:24;;;;;;;9.13;3.22;;;;;;;;;;4857594;29;20120;-71
2021/05/15 16:04:50;;;;;;;8.13;2.55;;;;;;;;;;4857239;29;20034;-75
2021/05/15 16:07:16;;;;;;;5.22;2.30;;;;;;;;;;4858163;29;20042;-69
2021/05/15 16:09:42;;;;;;;6.43;2.40;;;;;;;;;;4857357;29;20050;-71
2021/05/15 16:12:09;;;;;;;5.75;2.40;;;;;;;;;;4857709;29;20045;-70
2021/05/15 16:14:35;;;;;;;8.73;3.05;;;;;;;;;;4857982;29;20097;-71
2021/05/15 16:17:02;;;;;;;9.88;4.15;;;;;;;;;;4857713;29;20082;-67
2021/05/15 16:19:28;;;;;;;6.75;2.53;;;;;;;;;;4858044;29;21897;-69
2021/05/15 16:21:55;;;;;;;5.88;2.60;;;;;;;;;;4857615;29;20033;-66
2021/05/15 16:24:21;;;;;;;5.38;2.35;;;;;;;;;;4857751;29;20032;-62
2021/05/15 16:26:48;;;;;;;5.32;1.92;;;;;;;;;;4856097;29;20038;-63
2021/05/15 16:29:14;;;;;;;5.68;2.83;;;;;;;;;;4857640;29;20029;-71
2021/05/15 16:31:40;;;;;;;4.60;2.45;;;;;;;;;;4860198;29;20026;-64
2021/05/15 16:34:06;;;;;;;3.78;2.10;;;;;;;;;;4861167;29;20488;-63
2021/05/15 16:36:32;;;;;;;5.70;2.75;;;;;;;;;;4860850;29;20479;-69
2021/05/15 16:38:58;;;;;;;7.72;2.83;;;;;;;;;;4860547;29;20034;-67
2021/05/15 16:41:25;;;;;;;5.55;2.20;;;;;;;;;;4854477;29;20045;-61
2021/05/15 16:43:53;;;;;;;5.75;1.95;;;;;;;;;;4857449;29;20113;-63
2021/05/15 16:46:19;;;;;;;7.18;2.30;;;;;;;;;;4851978;29;20029;-72
2021/05/15 16:48:45;;;;;;;12.98;3.08;;;;;;;;;;4851189;29;20026;-72
2021/05/15 16:51:13;;;;;;;16.30;3.15;;;;;;;;;;4850790;29;20176;-72
2021/05/15 16:53:40;;;;;;;8.57;2.78;;;;;;;;;;4852163;29;20112;-75
2021/05/15 16:56:07;;;;;;;11.95;2.95;;;;;;;;;;4851554;29;20022;-74
2021/05/15 16:58:34;;;;;;;5.75;3.03;;;;;;;;;;4850106;29;20033;-73
2021/05/15 17:01:00;;;;;;;7.28;3.60;;;;;;;;;;4851738;29;20069;-75
2021/05/15 17:03:27;;;;;;;5.07;2.40;;;;;;;;;;4851112;29;20105;-75
2021/05/15 17:05:53;;;;;;;6.95;2.67;;;;;;;;;;4847876;29;20164;-64
2021/05/15 17:08:19;;;;;;;8.77;2.92;;;;;;;;;;4849880;29;20034;-73
2021/05/15 17:10:47;;;;;;;9.43;3.65;;;;;;;;;;4850610;29;20029;-68
2021/05/15 17:13:14;;;;;;;7.05;2.70;;;;;;;;;;4851877;29;20033;-69
2021/05/15 17:15:40;;;;;;;9.25;3.13;;;;;;;;;;4851577;29;20702;-71
2021/05/15 17:18:06;;;;;;;6.47;2.90;;;;;;;;;;4854802;29;20112;-66
2021/05/15 17:20:32;;;;;;;9.57;3.13;;;;;;;;;;4858918;29;20033;-63
2021/05/15 17:22:59;;;;;;;8.65;3.65;;;;;;;;;;4855905;29;21060;-70
2021/05/15 17:25:25;;;;;;;7.80;3.03;;;;;;;;;;4851512;29;20068;-72
2021/05/15 17:27:51;;;;;;;8.63;2.97;;;;;;;;;;4856466;29;20513;-68
2021/05/15 17:30:17;;;;;;;6.63;3.28;;;;;;;;;;4860161;29;20494;-73
2021/05/15 17:32:43;;;;;;;6.50;2.92;;;;;;;;;;4859549;29;20507;-67
2021/05/15 17:35:09;;;;;;;7.20;3.22;;;;;;;;;;4858415;29;20036;-63
2021/05/15 17:37:36;;;;;;;7.40;3.63;;;;;;;;;;4858652;29;20250;-74
2021/05/15 17:40:03;;;;;;;10.55;3.38;;;;;;;;;;4858455;29;20406;-75
2021/05/15 17:42:29;;;;;;;17.10;3.88;;;;;;;;;;4857246;29;20490;-71
2021/05/15 17:44:56;;;;;;;6.90;3.40;;;;;;;;;;4858534;29;20025;-70
2021/05/15 17:47:22;;;;;;;6.63;3.38;;;;;;;;;;4858417;29;20029;-60
2021/05/15 17:49:48;;;;;;;7.55;3.28;;;;;;;;;;4858342;29;20818;-67
2021/05/15 17:52:14;;;;;;;9.18;3.20;;;;;;;;;;4858598;29;20026;-61
2021/05/15 17:54:40;;;;;;;6.75;2.83;;;;;;;;;;4857948;29;20029;-70
2021/05/15 17:57:06;;;;;;;8.88;3.60;;;;;;;;;;4858897;29;20029;-61
2021/05/15 17:59:32;;;;;;;9.77;3.38;;;;;;;;;;4856569;29;20089;-68
2021/05/15 18:01:58;;;;;;;8.93;3.20;;;;;;;;;;4847851;29;20080;-63
2021/05/15 18:04:24;;;;;;;7.88;3.15;;;;;;;;;;4859350;29;20021;-63
2021/05/15 18:06:51;;;;;;;8.45;3.20;;;;;;;;;;4859606;29;20063;-64
2021/05/15 18:09:17;;;;;;;10.18;3.10;;;;;;;;;;4858384;29;20191;-63
2021/05/15 18:11:43;;;;;;;7.88;4.50;;;;;;;;;;4856332;29;20030;-73
2021/05/15 18:14:09;;;;;;;9.50;3.95;;;;;;;;;;4859122;29;20028;-67
2021/05/15 18:16:35;;;;;;;10.27;4.75;;;;;;;;;;4858928;29;20216;-73
2021/05/15 18:19:03;;;;;;;10.35;6.10;;;;;;;;;;4858961;29;20731;-62
2021/05/15 18:21:29;;;;;;;15.82;8.43;;;;;;;;;;4858942;29;20505;-61
2021/05/15 18:23:56;;;;;;;15.85;6.47;;;;;;;;;;4859149;29;20218;-61
2021/05/15 18:26:22;;;;;;;9.88;5.40;;;;;;;;;;4858813;29;20116;-61
2021/05/15 18:28:50;;;;;;;10.25;4.80;;;;;;;;;;4859157;29;20712;-62
2021/05/15 18:31:16;;;;;;;7.95;4.43;;;;;;;;;;4859050;29;20652;-74
2021/05/15 18:33:42;;;;;;;14.45;5.57;;;;;;;;;;4859027;29;20482;-73
2021/05/15 18:36:08;;;;;;;11.90;4.45;;;;;;;;;;4858845;29;20033;-65
2021/05/15 18:38:34;;;;;;;8.77;3.85;;;;;;;;;;4858603;29;20048;-62
2021/05/15 18:41:00;;;;;;;8.00;3.63;;;;;;;;;;4858676;29;20553;-64
2021/05/15 18:43:29;;;;;;;8.80;3.60;;;;;;;;;;4857826;29;20034;-69
2021/05/15 18:45:55;;;;;;;8.20;4.00;;;;;;;;;;4858486;29;20468;-72
2021/05/15 18:48:34;;;;;;;9.68;3.50;;;;;;;;;;4856367;29;20393;-74
2021/05/15 18:51:00;;;;;;;10.18;3.67;;;;;;;;;;4857644;29;20059;-70
2021/05/15 18:53:26;;;;;;;9.48;3.72;;;;;;;;;;4856590;29;20078;-73
2021/05/15 18:55:52;;;;;;;11.85;4.50;;;;;;;;;;4857387;29;20708;-70
2021/05/15 18:58:18;;;;;;;8.52;4.65;;;;;;;;;;4857330;29;20034;-75
2021/05/15 19:00:44;;;;;;;11.07;5.90;;;;;;;;;;4856932;29;20509;-79
2021/05/15 19:03:10;;;;;;;10.15;4.05;;;;;;;;;;4857727;29;20178;-74
2021/05/15 19:05:36;;;;;;;9.88;3.42;;;;;;;;;;4850623;29;20522;-70
2021/05/15 19:08:03;;;;;;;8.00;3.20;;;;;;;;;;4857065;29;20029;-74
2021/05/15 19:10:29;;;;;;;6.82;3.60;;;;;;;;;;4857231;29;20053;-67
2021/05/15 19:12:56;;;;;;;6.20;3.42;;;;;;;;;;4858067;29;20044;-70
2021/05/15 19:15:22;;;;;;;8.00;3.33;;;;;;;;;;4857340;29;20034;-64
2021/05/15 19:17:48;;;;;;;8.93;3.55;;;;;;;;;;4857622;29;20054;-70
2021/05/15 19:20:15;;;;;;;8.57;4.00;;;;;;;;;;4857949;29;20104;-68
2021/05/15 19:22:41;;;;;;;9.73;3.80;;;;;;;;;;4857873;29;20034;-72
2021/05/15 19:25:07;;;;;;;7.65;3.30;;;;;;;;;;4856976;29;20529;-78
2021/05/15 19:27:34;;;;;;;8.82;4.55;;;;;;;;;;4857292;29;20044;-71
2021/05/15 19:30:00;;;;;;;5.57;3.53;;;;;;;;;;4857895;29;20438;-77
2021/05/15 19:32:26;;;;;;;11.90;5.15;;;;;;;;;;4847748;29;20062;-67
2021/05/15 19:34:52;;;;;;;7.78;4.03;;;;;;;;;;4848232;29;20378;-61
2021/05/15 19:37:18;;;;;;;9.32;4.25;;;;;;;;;;4847361;29;20135;-64
2021/05/15 19:39:45;;;;;;;6.18;3.75;;;;;;;;;;4844697;29;20041;-77
2021/05/15 19:42:11;;;;;;;10.48;3.92;;;;;;;;;;4848047;29;20230;-66
2021/05/15 19:44:37;;;;;;;11.05;4.55;;;;;;;;;;4847485;29;20478;-67
2021/05/15 19:47:06;;;;;;;9.40;4.38;;;;;;;;;;4856220;29;20144;-74
2021/05/15 19:49:32;;;;;;;7.82;4.80;;;;;;;;;;4857225;29;20105;-75
2021/05/15 19:52:00;;;;;;;9.93;4.80;;;;;;;;;;4856184;29;20040;-59
2021/05/15 19:54:46;;;;;;;8.60;5.18;;;;;;;;;;4853118;29;20025;-62
2021/05/15 19:57:12;;;;;;;11.27;4.70;;;;;;;;;;4846380;29;20022;-73
2021/05/15 19:59:38;;;;;;;6.28;4.22;;;;;;;;;;4847138;29;20172;-68
2021/05/15 20:02:04;;;;;;;10.48;5.88;;;;;;;;;;4848071;29;20041;-71
2021/05/15 20:04:30;;;;;;;11.27;7.43;;;;;;;;;;4849832;29;20036;-67
2021/05/15 20:06:57;;;;;;;7.55;4.55;;;;;;;;;;4853370;29;20093;-64
2021/05/15 20:09:24;;;;;;;9.07;4.30;;;;;;;;;;4856524;29;20109;-63
2021/05/15 20:11:50;;;;;;;6.40;4.68;;;;;;;;;;4854434;29;20037;-64